This is the latest recevied weather packets stored in our database for station/object KB1JLI. If no packets are shown the sender has not sent any weather packets the latest 10 day(s).
| Time | Temp. | Humidity | Pressure | Rain* | Wind** | Luminosity | Snow |
|---|---|---|---|---|---|---|---|
| 1777905295 | 18.89° C | 37% | 1009.2 hPa | 0 mm | - | 594 W/m² | - |
| 1777903780 | 17.78° C | 38% | 1009.3 hPa | 0 mm | - | 547 W/m² | - |
| 1777903476 | 17.78° C | 38% | 1009.2 hPa | 0 mm | - | 538 W/m² | - |
| 1777903173 | 17.78° C | 38% | 1009.4 hPa | 0 mm | - | 525 W/m² | - |
| 1777902566 | 17.22° C | 40% | 1009.5 hPa | 0 mm | - | 506 W/m² | - |
| 1777901961 | 16.67° C | 39% | 1009.4 hPa | 0 mm | - | 482 W/m² | - |
| 1777901659 | 16.67° C | 41% | 1009.6 hPa | 0 mm | - | 472 W/m² | - |
| 1777901355 | 16.11° C | 40% | 1009.7 hPa | 0 mm | - | 462 W/m² | - |
| 1777901053 | 16.67° C | 40% | 1009.8 hPa | 0 mm | - | 448 W/m² | - |
| 1777900750 | 16.11° C | 42% | 1009.7 hPa | 0 mm | - | 436 W/m² | - |
| 1777900447 | 16.11° C | 41% | 1009.8 hPa | 0 mm | - | 426 W/m² | - |
| 1777900144 | 16.11° C | 41% | 1009.8 hPa | 0 mm | - | 409 W/m² | - |
| 1777899841 | 16.11° C | 42% | 1009.9 hPa | 0 mm | - | 395 W/m² | - |
| 1777898326 | 13.89° C | 46% | 1010.2 hPa | 0 mm | - | 333 W/m² | - |
| 1777898018 | 13.89° C | 46% | 1010.3 hPa | 0 mm | - | 321 W/m² | - |
| 1777897714 | 13.89° C | 46% | 1010.4 hPa | 0 mm | - | 304 W/m² | - |
| 1777897411 | 13.33° C | 46% | 1010.3 hPa | 0 mm | - | 290 W/m² | - |
| 1777897107 | 13.33° C | 47% | 1010.4 hPa | 0 mm | - | 279 W/m² | - |
| 1777896804 | 13.33° C | 47% | 1010.5 hPa | 0 mm | - | 261 W/m² | - |
| 1777896501 | 12.78° C | 48% | 1010.4 hPa | 0 mm | - | 247 W/m² | - |
| 1777896198 | 12.78° C | 48% | 1010.4 hPa | 0 mm | - | 215 W/m² | - |
| 1777895896 | 12.22° C | 48% | 1010.5 hPa | 0 mm | - | 235 W/m² | - |
| 1777894686 | 10.56° C | 52% | 1010.5 hPa | 0 mm | - | 56 W/m² | - |
| 1777894382 | 10.56° C | 53% | 1010.5 hPa | 0 mm | - | 51 W/m² | - |
| 1777894080 | 10° C | 54% | 1010.5 hPa | 0 mm | - | 47 W/m² | - |
* Rain latest hour (hover to see other rain measurements)
** Current wind speed in m/s (hover to see current wind gust speed)